Latest Weather Observations for The Monument

IDQ60801

Issued at 7:02 am EST Monday 20 February 2017 (issued every 30 minutes, with the page automatically refreshed every 10 minutes)

About weather observations | Map of weather stations | Latest weather observations for QLD | Other Formats
Station Details ID: 037034 Name: THE MONUMENT AIRPORT Lat: -21.81 Lon: 139.93 Height: 288.4 m
Data from the previous 72 hours. | See also: Recent months at The Monument
Date/Time
EST
Temp
°C
App
Temp
°C
Dew
Point
°C
Rel
Hum
%
Delta-T
°C
Wind Press
QNH
hPa
Press
MSL
hPa
Rain since
9am
mm
Dir  Spd
km/h
Gust
km/h
Spd
kts
Gust
kts
20/07:00am 18.5 15.3 5.0 41 6.6 S 11 13 6 7 1013.5 1011.3 0.0
20/06:30am 18.2 15.4 5.1 42 6.4 S 9 11 5 6 1013.1 1010.9 0.0
20/06:00am 18.8 15.4 4.2 38 7.1 S 11 13 6 7 1012.6 1010.4 0.0
20/05:30am 19.8 15.9 3.5 34 7.8 S 13 17 7 9 1012.1 1009.9 0.0
20/05:00am 20.5 16.2 3.3 32 8.3 S 15 20 8 11 1012.0 1009.8 0.0
20/04:30am 20.6 16.3 3.3 32 8.3 S 15 19 8 10 1011.8 1009.6 0.0
20/04:00am 21.1 16.4 3.3 31 8.6 S 17 20 9 11 1011.7 1009.5 0.0
20/03:30am 21.4 17.1 3.1 30 8.8 S 15 20 8 11 1011.8 1009.6 0.0
20/03:00am 21.8 17.2 3.5 30 8.9 S 17 24 9 13 1011.5 1009.3 0.0
20/02:30am 22.3 17.6 3.4 29 9.2 S 17 26 9 14 1011.7 1009.5 0.0
20/02:00am 21.9 17.8 4.5 32 8.6 S 15 17 8 9 1011.9 1009.7 0.0
20/01:30am 22.2 18.5 4.7 32 8.7 S 13 17 7 9 1011.9 1009.7 0.0
20/01:00am 22.9 19.3 4.9 31 9.1 S 13 17 7 9 1012.0 1009.8 0.0
20/12:30am 23.7 19.6 4.6 29 9.6 S 15 20 8 11 1012.2 1010.0 0.0
20/12:00am 24.0 20.1 5.4 30 9.5 S 15 19 8 10 1012.3 1010.1 0.0
 
Date/Time
EST
Temp
°C
App
Temp
°C
Dew
Point
°C
Rel
Hum
%
Delta-T
°C
Wind Press
QNH
hPa
Press
MSL
hPa
Rain since
9am
mm
Dir  Spd
km/h
Gust
km/h
Spd
kts
Gust
kts
19/11:30pm 24.2 20.7 5.5 30 9.6 S 13 19 7 10 1012.4 1010.2 0.0
19/11:00pm 24.0 20.4 6.7 33 9.1 S 15 17 8 9 1012.3 1010.1 0.0
19/10:30pm 23.8 21.6 9.4 40 7.9 S 11 13 6 7 1012.2 1010.0 0.0
19/10:00pm 24.3 22.8 10.6 42 7.7 SSW 9 11 5 6 1012.0 1009.8 0.0
19/09:30pm 24.7 23.9 11.6 44 7.5 SSW 7 9 4 5 1011.7 1009.5 0.0
19/09:00pm 24.5 23.9 11.8 45 7.3 SSW 6 6 3 3 1011.4 1009.2 0.0
19/08:30pm 25.9 24.4 9.3 35 9.2 SSW 7 9 4 5 1011.2 1009.0 0.0
19/08:00pm 26.4 24.0 8.8 33 9.7 SSW 11 13 6 7 1010.9 1008.7 0.0
19/07:30pm 27.4 25.2 7.8 29 10.7 SSW 9 11 5 6 1010.9 1008.7 0.0
19/07:00pm 28.7 25.7 6.1 24 12.1 S 11 13 6 7 1010.7 1008.5 0.0
19/06:30pm 30.0 26.5 5.3 21 13.1 S 13 19 7 10 1010.4 1008.2 0.0
19/06:00pm 30.9 27.1 6.0 21 13.4 S 15 19 8 10 1010.2 1008.0 0.0
19/05:30pm 31.3 27.2 6.4 21 13.5 S 17 24 9 13 1010.0 1007.8 0.0
19/05:00pm 31.3 27.2 6.4 21 13.5 S 17 24 9 13 1009.8 1007.6 0.0
19/04:30pm 31.4 27.7 6.5 21 13.6 S 15 20 8 11 1010.1 1007.9 0.0
19/04:00pm 31.5 26.9 5.8 20 13.9 SSW 19 26 10 14 1010.3 1008.1 0.0
19/03:30pm 31.2 27.1 6.3 21 13.5 SSW 17 28 9 15 1010.2 1008.0 0.0
19/03:00pm 31.2 26.6 6.3 21 13.5 SSW 20 28 11 15 1010.2 1008.0 0.0
19/02:30pm 31.0 26.9 6.1 21 13.4 S 17 30 9 16 1010.5 1008.3 0.0
19/02:00pm 31.4 26.9 7.1 22 13.4 S 20 32 11 17 1010.7 1008.5 0.0
19/01:30pm 31.0 26.7 6.8 22 13.2 S 19 26 10 14 1011.2 1009.0 0.0
19/01:00pm 30.7 26.1 6.6 22 13.1 S 20 32 11 17 1011.7 1009.5 0.0
19/12:30pm 29.5 24.3 5.6 22 12.7 S 22 32 12 17 1012.4 1010.2 0.0
19/12:00pm 29.1 23.6 5.9 23 12.4 S 24 32 13 17 1012.8 1010.7 0.0
19/11:30am 28.2 23.0 5.7 24 11.9 S 22 30 12 16 1013.5 1011.3 0.0
19/11:00am 27.2 22.3 4.9 24 11.5 S 20 30 11 16 1013.8 1011.6 0.0
19/10:30am 26.2 21.4 5.7 27 10.7 S 20 30 11 16 1014.0 1011.8 0.0
19/10:00am 25.3 19.3 5.5 28 10.2 S 26 35 14 19 1014.0 1011.8 0.0
19/09:30am 24.9 19.7 5.7 29 9.9 S 22 30 12 16 1014.0 1011.8 0.0
19/09:00am 23.9 18.8 5.8 31 9.3 S 22 35 12 19 1013.8 1011.6 6.2
19/08:30am 23.5 18.9 6.3 33 8.9 S 20 28 11 15 1013.7 1011.5 6.2
19/08:00am 22.8 18.8 6.6 35 8.4 S 17 22 9 12 1013.7 1011.5 6.2
19/07:30am 21.9 19.8 9.8 46 6.6 SSW 11 15 6 8 1013.6 1011.4 6.2
19/07:00am 21.5 19.2 10.3 49 6.2 SSW 13 17 7 9 1013.3 1011.1 6.2
19/06:30am 21.9 20.1 11.0 50 6.1 SSW 11 13 6 7 1012.7 1010.5 6.2
19/06:00am 22.2 21.2 12.2 53 5.7 S 9 11 5 6 1012.4 1010.2 6.2
19/05:30am 22.6 21.0 11.4 49 6.3 SSE 11 11 6 6 1012.1 1009.9 6.2
19/05:00am 23.0 22.4 12.3 51 6.2 SE 7 9 4 5 1011.7 1009.5 6.2
19/04:30am 24.0 22.4 11.7 46 7.0 S 11 15 6 8 1011.2 1009.0 6.2
19/04:00am 24.8 22.8 12.7 47 7.1 S 15 19 8 10 1011.0 1008.8 6.2
19/03:30am 25.4 24.9 13.9 49 6.9 SSE 9 11 5 6 1011.2 1009.0 6.2
19/03:00am 25.6 24.8 15.0 52 6.5 SSE 13 17 7 9 1011.2 1009.0 6.2
19/02:30am 25.7 24.8 16.8 58 5.6 S 17 24 9 13 1010.8 1008.6 6.2
19/02:00am 25.8 27.2 20.4 72 3.6 SW 13 15 7 8 1010.7 1008.5 6.2
19/01:30am 25.8 27.8 20.8 74 3.3 SW 11 15 6 8 1010.8 1008.6 6.2
19/01:00am 26.1 27.8 20.9 73 3.5 SW 13 20 7 11 1011.1 1008.9 6.2
19/12:30am 26.3 28.6 20.6 71 3.8 SW 9 13 5 7 1011.5 1009.3 6.2
19/12:00am 26.8 27.7 20.9 70 3.9 WSW 17 24 9 13 1011.4 1009.2 6.2
 
Date/Time
EST
Temp
°C
App
Temp
°C
Dew
Point
°C
Rel
Hum
%
Delta-T
°C
Wind Press
QNH
hPa
Press
MSL
hPa
Rain since
9am
mm
Dir  Spd
km/h
Gust
km/h
Spd
kts
Gust
kts
18/11:30pm 26.5 29.7 21.7 75 3.2 W 7 11 4 6 1011.3 1009.1 6.2
18/11:00pm 26.7 29.8 21.0 71 3.8 N 6 9 3 5 1011.3 1009.1 6.2
18/10:30pm 27.0 29.9 20.6 68 4.3 NNW 6 11 3 6 1011.5 1009.3 6.2
18/10:00pm 26.8 28.0 19.9 66 4.5 N 13 17 7 9 1011.3 1009.1 6.2
18/09:30pm 26.7 28.6 20.5 69 4.1 NNE 11 15 6 8 1011.4 1009.2 6.2
18/09:00pm 26.5 28.4 20.6 70 3.9 NNW 11 13 6 7 1011.1 1008.9 6.2
18/08:30pm 26.3 28.6 20.6 71 3.8 N 9 15 5 8 1010.9 1008.7 6.2
18/08:00pm 26.5 28.6 20.1 68 4.2 NNE 9 11 5 6 1010.4 1008.2 6.2
18/07:30pm 26.4 28.7 20.7 71 3.8 E 9 11 5 6 1010.0 1007.8 6.2
18/07:00pm 25.4 27.8 20.9 76 3.0 E 9 11 5 6 1010.0 1007.8 6.2
18/06:30pm 24.6 26.0 20.3 77 2.8 ESE 13 15 7 8 1010.1 1007.9 6.2
18/06:00pm 24.8 25.7 20.9 79 2.6 SE 17 22 9 12 1010.3 1008.1 6.0
18/05:30pm 25.5 28.1 22.0 81 2.4 SSW 11 13 6 7 1010.2 1008.0 5.8
18/05:00pm 25.4 27.1 21.7 80 2.5 WNW 15 19 8 10 1009.9 1007.7 5.0
18/04:30pm 24.7 25.4 21.6 83 2.1 NW 20 26 11 14 1010.2 1008.0 4.8
18/04:00pm 23.6 23.9 20.5 83 2.0 SSW 19 28 10 15 1010.3 1008.1 3.8
18/03:32pm 24.1 23.3 20.0 78 2.7 SW 24 46 13 25 1010.7 1008.5 1.4
18/03:30pm 25.6 24.9 20.2 72 3.6 WSW 24 35 13 19 1010.8 1008.6 1.0
18/03:12pm 29.2 28.4 20.1 58 6.0 W 24 39 13 21 1010.1 1007.9 0.2
18/03:00pm 34.3 34.1 16.6 34 11.4 WNW 13 20 7 11 1009.7 1007.5 0.0
18/02:30pm 35.0 35.8 17.2 34 11.6 W 9 17 5 9 1009.7 1007.5 0.0
18/02:00pm 35.1 36.3 19.1 39 10.7 NNW 11 22 6 12 1010.5 1008.3 0.0
18/01:30pm 33.3 32.6 18.6 41 9.7 NNW 20 32 11 17 1011.1 1008.9 0.0
18/01:00pm 33.5 35.2 18.4 40 9.9 N 7 17 4 9 1011.6 1009.4 0.0
18/12:30pm 33.7 35.6 19.0 42 9.7 NW 7 13 4 7 1012.2 1010.0 0.0
18/12:00pm 33.1 34.9 18.8 42 9.4 SW 7 15 4 8 1012.4 1010.2 0.0
18/11:30am 32.9 33.5 18.7 43 9.3 WNW 13 19 7 10 1012.8 1010.7 0.0
18/11:00am 32.4 35.2 18.9 44 8.9 SSW 2 9 1 5 1012.9 1010.8 0.0
18/10:30am 31.9 33.7 19.5 47 8.2 WNW 9 17 5 9 1013.3 1011.1 0.0
18/10:00am 31.4 33.1 19.4 49 7.9 NW 9 19 5 10 1013.3 1011.1 0.0
18/09:30am 30.9 32.3 19.6 51 7.5 WSW 11 19 6 10 1013.5 1011.3 0.0
18/09:00am 29.2 31.4 20.4 59 5.9 WSW 9 15 5 8 1013.4 1011.2 0.0
18/08:30am 28.4 30.4 20.7 63 5.1 WSW 11 15 6 8 1012.9 1010.8 0.0
18/08:00am 28.1 30.5 20.9 65 4.8 SW 9 13 5 7 1012.7 1010.5 0.0
18/07:30am 27.6 29.4 20.4 65 4.8 SW 11 15 6 8 1012.4 1010.2 0.0
18/07:00am 27.1 29.2 19.4 62 5.0 SW 7 11 4 6 1012.0 1009.8 0.0
18/06:30am 26.5 28.5 19.1 64 4.8 SW 7 9 4 5 1011.7 1009.5 0.0
18/06:00am 26.6 28.6 18.7 62 5.1 S 6 7 3 4 1011.1 1008.9 0.0
18/05:30am 26.9 29.8 18.2 59 5.6 CALM 0 0 0 0 1010.8 1008.6 0.0
18/05:00am 28.3 30.0 18.1 54 6.6 NW 6 9 3 5 1010.5 1008.3 0.0
18/04:30am 28.8 29.5 18.0 52 7.0 NW 11 17 6 9 1010.4 1008.2 0.0
18/04:00am 28.4 29.7 18.5 55 6.4 N 9 15 5 8 1010.0 1007.8 0.0
18/03:30am 28.6 29.9 19.2 56 6.2 N 11 15 6 8 1009.6 1007.3 0.0
18/03:00am 28.6 30.2 19.2 56 6.2 N 9 11 5 6 1009.7 1007.5 0.0
18/02:30am 29.0 30.1 19.6 57 6.2 N 13 19 7 10 1009.6 1007.3 0.0
18/02:00am 28.8 29.5 19.7 58 6.0 N 15 22 8 12 1009.8 1007.6 0.0
18/01:30am 29.0 28.9 19.9 58 6.0 NNE 20 28 11 15 1010.0 1007.8 0.0
18/01:00am 29.0 29.9 19.3 55 6.4 N 13 20 7 11 1010.3 1008.1 0.0
18/12:30am 29.1 30.2 18.8 53 6.7 N 11 17 6 9 1010.5 1008.3 0.0
18/12:00am 29.5 29.3 18.6 52 7.1 N 17 28 9 15 1010.9 1008.7 0.0
 
Date/Time
EST
Temp
°C
App
Temp
°C
Dew
Point
°C
Rel
Hum
%
Delta-T
°C
Wind Press
QNH
hPa
Press
MSL
hPa
Rain since
9am
mm
Dir  Spd
km/h
Gust
km/h
Spd
kts
Gust
kts
17/11:30pm 29.5 30.6 18.0 50 7.4 N 9 13 5 7 1011.3 1009.1 0.0
17/11:00pm 29.7 30.9 18.2 50 7.5 N 9 15 5 8 1011.6 1009.4 0.0
17/10:30pm 29.9 31.4 18.0 48 7.7 N 7 11 4 6 1011.4 1009.2 0.0
17/10:00pm 30.2 30.5 18.0 48 7.9 N 13 15 7 8 1011.3 1009.1 0.0
17/09:30pm 30.7 31.8 18.8 49 7.8 NNW 11 15 6 8 1011.5 1009.3 0.0
17/09:00pm 31.0 32.7 19.4 50 7.7 N 9 19 5 10 1011.2 1009.0 0.0
17/08:30pm 31.3 31.1 19.3 49 7.9 N 19 26 10 14 1010.9 1008.7 0.0
17/08:00pm 31.7 31.5 19.3 47 8.2 N 19 26 10 14 1010.6 1008.4 0.0
17/07:30pm 32.3 30.3 19.2 46 8.7 N 28 39 15 21 1010.1 1007.9 0.0
17/07:00pm 33.6 30.8 18.1 39 10.2 N 30 43 16 23 1009.3 1007.1 0.0
17/06:30pm 35.6 33.2 17.3 33 11.9 NNE 26 35 14 19 1008.8 1006.6 0.0
17/06:00pm 37.4 35.3 14.7 26 14.4 NE 19 30 10 16 1008.2 1006.0 0.0
17/05:30pm 37.3 36.3 14.6 26 14.3 ENE 13 24 7 13 1008.0 1005.8 0.0
17/05:00pm 38.6 36.7 15.7 26 14.7 NE 20 32 11 17 1007.9 1005.7 0.0
17/04:30pm 38.9 38.6 16.5 26 14.6 NE 13 28 7 15 1008.0 1005.8 0.0
17/04:00pm 37.9 36.7 15.1 26 14.5 ENE 15 30 8 16 1008.2 1006.0 0.0
17/03:30pm 39.1 38.7 17.2 27 14.4 NE 15 30 8 16 1008.4 1006.2 0.0
17/03:00pm 37.7 36.3 15.5 27 14.2 E 17 26 9 14 1008.9 1006.7 0.0
17/02:30pm 37.8 36.6 16.1 27 14.0 ENE 17 28 9 15 1009.7 1007.5 0.0
17/02:00pm 37.7 37.7 17.1 29 13.5 NE 13 20 7 11 1010.2 1008.0 0.0
17/01:30pm 37.6 37.6 17.1 30 13.4 ENE 13 24 7 13 1010.7 1008.5 0.0
17/01:00pm 37.0 36.8 17.6 32 12.7 ENE 15 24 8 13 1011.0 1008.8 0.0
17/12:30pm 35.8 37.1 18.4 35 11.5 E 9 22 5 12 1011.2 1009.0 0.0
17/12:00pm 35.4 36.0 18.5 37 11.2 NNE 13 28 7 15 1011.7 1009.5 0.0
17/11:30am 34.4 35.5 18.8 39 10.3 ENE 11 20 6 11 1011.9 1009.7 0.0
17/11:00am 34.4 36.4 19.2 40 10.1 NNW 7 20 4 11 1012.1 1009.9 0.0
17/10:30am 33.7 35.0 20.1 44 9.1 NE 13 19 7 10 1012.3 1010.1 0.0
17/10:00am 32.9 34.0 19.7 45 8.8 NNE 13 20 7 11 1012.7 1010.5 0.0
17/09:30am 31.4 32.5 19.7 49 7.8 N 13 20 7 11 1012.6 1010.4 0.0
17/09:00am 30.4 31.1 19.7 52 7.1 N 15 24 8 13 1012.5 1010.3 0.0
17/08:30am 29.6 30.0 19.9 56 6.4 N 17 24 9 13 1012.2 1010.0 0.0
17/08:00am 28.9 29.4 20.1 59 5.8 NNE 17 24 9 13 1011.8 1009.6 0.0
17/07:30am 27.8 28.6 19.8 61 5.3 NNE 15 22 8 12 1011.6 1009.4 0.0

Other Formats:

Comma delimited format used in spreadsheet applications
http://www.bom.gov.au/fwo/IDQ60801/IDQ60801.94336.axf

JavaScript Object Notation format (JSON) in row-major order
http://www.bom.gov.au/fwo/IDQ60801/IDQ60801.94336.json